Decoded Metar for LFSG (EPINAL in FRANCE) (IATA:EPL) | Meteo·Mobile Aviation Weather
aviador You're here:

LFSG Decoded Metar

EPINAL in FRANCE
Report Time2019-07-16 10:00:00
UTC Time2019-07-16 10:29:09
Flight Rules vfr VFR
WindVRB at 03 kt
Visibility9999 m
Phenomena:N/A
Clouds:N/A
Expected CloudBase > 4,000 ft AGL from Temp-Dew spread
CeilingNone
Temp21°C (ISA +8)
Dew Point11°C (53% RH)
AAT20.3°C
QNH1018 hPa
Density Alt2,044 ft
Elevation1,083 ft
Report Wrong Elevation
Raw Report
METAR LFSG 161000Z AUTO VRB03KT CAVOK 21/11 Q1018=

Extra information for LFSG:More info

Metar Taf Metar & Taf Last 4 Metars F.Rules Stats Wind Profile Meteogram Temp Stats Airport Information Weather charts Add Link Nearby VenuesMetar ALERT Operation Metar Decoded Social comments